createdAt,value
2023-11-11T00:00:39.074Z,100068.38
2023-11-11T00:03:08.781Z,100062.06
2023-11-11T00:05:35.623Z,100066.66
2023-11-11T00:08:02.692Z,100069.38
2023-11-11T00:10:29.975Z,100073.97
2023-11-11T00:12:56.532Z,100066.78
2023-11-11T00:15:23.036Z,100072.53
2023-11-11T00:17:49.485Z,100066.38
2023-11-11T00:20:17.797Z,100070.44
2023-11-11T00:22:45.955Z,100071.94
2023-11-11T00:25:14.321Z,100077.88
2023-11-11T00:27:44.938Z,100075.78
2023-11-11T00:30:13.294Z,100076.38
2023-11-11T00:32:39.796Z,100074.28
2023-11-11T00:35:09.353Z,100083.09
2023-11-11T00:37:36.408Z,100080.94
2023-11-11T00:40:03.016Z,100089.75
2023-11-11T00:42:29.492Z,100090.06
2023-11-11T00:44:55.991Z,100093.09
2023-11-11T00:47:22.497Z,100097.00
2023-11-11T00:49:50.559Z,100101.91
2023-11-11T00:52:17.912Z,100100.50
2023-11-11T00:54:44.798Z,100095.50
2023-11-11T00:57:11.406Z,100101.38
2023-11-11T00:59:37.899Z,100098.81
2023-11-11T01:02:05.569Z,100108.31
2023-11-11T01:04:32.304Z,100112.31
2023-11-11T01:06:58.819Z,100117.22
2023-11-11T01:09:25.416Z,100114.78
2023-11-11T01:11:52.230Z,100131.44
2023-11-11T01:14:18.694Z,100118.13
2023-11-11T01:16:45.262Z,100122.16
2023-11-11T01:19:12.028Z,100127.03
2023-11-11T01:21:38.566Z,100130.06
2023-11-11T01:24:05.802Z,100129.50
2023-11-11T01:26:32.403Z,100136.09
2023-11-11T01:28:58.852Z,100132.66
2023-11-11T01:31:25.524Z,100119.34
2023-11-11T01:33:52.013Z,100135.13
2023-11-11T01:36:18.492Z,100146.16
2023-11-11T01:38:45.040Z,100155.50
2023-11-11T01:41:11.573Z,100171.09
2023-11-11T01:43:37.993Z,100171.41
2023-11-11T01:46:07.038Z,100162.66
2023-11-11T01:48:35.454Z,100160.13
2023-11-11T01:51:05.572Z,100168.56
2023-11-11T01:53:34.360Z,100166.13
2023-11-11T01:56:01.714Z,100164.56
2023-11-11T01:58:29.081Z,100157.38
2023-11-11T02:00:57.622Z,100162.25
2023-11-11T02:03:24.465Z,100159.84
2023-11-11T02:05:54.517Z,100158.13
2023-11-11T02:08:21.267Z,100164.72
2023-11-11T02:10:47.889Z,100161.28
2023-11-11T02:13:15.088Z,100164.13
2023-11-11T02:15:42.512Z,100163.44
2023-11-11T02:18:11.440Z,100167.31
2023-11-11T02:20:38.127Z,100181.94
2023-11-11T02:23:04.629Z,100175.91
2023-11-11T02:25:31.474Z,100183.34
2023-11-11T02:27:59.147Z,100174.47
2023-11-11T02:30:26.002Z,100189.03
2023-11-11T02:32:52.572Z,100210.13
2023-11-11T02:35:19.190Z,100183.88
2023-11-11T02:37:45.756Z,100185.03
2023-11-11T02:40:14.045Z,100185.16
2023-11-11T02:42:41.547Z,100189.91
2023-11-11T02:45:08.947Z,100192.75
2023-11-11T02:47:35.534Z,100196.50
2023-11-11T02:50:02.330Z,100191.19
2023-11-11T02:52:28.685Z,100189.63
2023-11-11T02:54:55.095Z,100194.22
2023-11-11T02:57:21.555Z,100193.47
2023-11-11T02:59:48.010Z,100199.06
2023-11-11T03:02:14.554Z,100208.22
2023-11-11T03:04:41.348Z,100210.09
2023-11-11T03:07:08.044Z,100206.66
2023-11-11T03:09:34.563Z,100209.50
2023-11-11T03:12:02.477Z,100204.22
2023-11-11T03:14:29.206Z,100207.94
2023-11-11T03:16:55.698Z,100217.25
2023-11-11T03:19:23.066Z,100228.25
2023-11-11T03:21:49.588Z,100236.59
2023-11-11T03:24:16.178Z,100235.84
2023-11-11T03:26:42.628Z,100243.13
2023-11-11T03:29:09.182Z,100256.91
2023-11-11T03:31:35.845Z,100247.13
2023-11-11T03:34:02.267Z,100238.13
2023-11-11T03:36:28.745Z,100246.44
2023-11-11T03:38:55.409Z,100242.97
2023-11-11T03:41:21.858Z,100249.44
2023-11-11T03:43:48.234Z,100247.69
2023-11-11T03:46:14.695Z,100252.28
2023-11-11T03:48:41.197Z,100250.69
2023-11-11T03:51:07.644Z,100251.69
2023-11-11T03:53:34.141Z,100255.41
2023-11-11T03:56:08.727Z,100255.56
2023-11-11T03:58:37.165Z,100264.59
2023-11-11T04:01:09.232Z,100260.25
2023-11-11T04:03:37.750Z,100258.56
2023-11-11T04:06:04.403Z,100268.56
2023-11-11T04:08:30.802Z,100265.09
2023-11-11T04:10:57.262Z,100263.41
2023-11-11T04:13:23.681Z,100262.53
2023-11-11T04:15:51.312Z,100259.94
2023-11-11T04:18:17.827Z,100259.94
2023-11-11T04:20:44.294Z,100262.81
2023-11-11T04:23:10.739Z,100265.66
2023-11-11T04:25:37.278Z,100279.25
2023-11-11T04:28:03.816Z,100291.13
2023-11-11T04:30:30.465Z,100297.59
2023-11-11T04:32:57.058Z,100305.75
2023-11-11T04:35:23.608Z,100305.00
2023-11-11T04:37:50.375Z,100306.03
2023-11-11T04:40:16.828Z,100316.91
2023-11-11T04:42:44.977Z,100324.31
2023-11-11T04:45:11.654Z,100311.59
2023-11-11T04:47:38.210Z,100306.25
2023-11-11T04:50:05.618Z,100301.97
2023-11-11T04:52:32.845Z,100291.97
2023-11-11T04:54:59.302Z,100289.38
2023-11-11T04:57:25.716Z,100285.81
2023-11-11T04:59:52.162Z,100290.38
2023-11-11T05:02:18.564Z,100296.81
2023-11-11T05:04:45.003Z,100297.78
2023-11-11T05:07:11.398Z,100302.38
2023-11-11T05:09:37.866Z,100311.53
2023-11-11T05:12:06.137Z,100306.22
2023-11-11T05:14:32.879Z,100309.81
2023-11-11T05:16:59.578Z,100320.69
2023-11-11T05:19:27.046Z,100324.38
2023-11-11T05:21:53.535Z,100314.53
2023-11-11T05:24:21.453Z,100329.22
2023-11-11T05:26:47.938Z,100345.53
2023-11-11T05:29:14.360Z,100352.00
2023-11-11T05:31:40.885Z,100343.97
2023-11-11T05:34:08.969Z,100338.53
2023-11-11T05:36:35.440Z,100339.66
2023-11-11T05:39:02.226Z,100340.66
2023-11-11T05:41:30.937Z,100348.94
2023-11-11T05:43:57.899Z,100353.53
2023-11-11T05:46:25.755Z,100351.66
2023-11-11T05:48:52.289Z,100340.88
2023-11-11T05:51:18.976Z,100349.03
2023-11-11T05:53:46.161Z,100346.44
2023-11-11T05:56:14.408Z,100358.34
2023-11-11T05:58:40.960Z,100360.19
2023-11-11T06:01:07.657Z,100363.88
2023-11-11T06:03:34.398Z,100366.72
2023-11-11T06:06:04.174Z,100376.75
2023-11-11T06:08:30.670Z,100379.59
2023-11-11T06:10:57.123Z,100385.03
2023-11-11T06:13:23.585Z,100382.44
2023-11-11T06:15:50.312Z,100388.75
2023-11-11T06:18:17.105Z,100387.88
2023-11-11T06:20:43.996Z,100389.75
2023-11-11T06:25:40.955Z,100403.47
2023-11-11T06:28:07.874Z,100399.16
2023-11-11T06:30:34.466Z,100394.44
2023-11-11T06:33:01.084Z,100391.88
2023-11-11T06:35:29.083Z,100394.72
2023-11-11T06:37:58.558Z,100392.00
2023-11-11T06:40:25.724Z,100401.28
2023-11-11T06:42:56.060Z,100400.41
2023-11-11T06:45:23.537Z,100395.84
2023-11-11T06:47:50.360Z,100395.09
2023-11-11T06:50:18.945Z,100398.69
2023-11-11T06:52:46.198Z,100396.09
2023-11-11T06:55:13.147Z,100403.38
2023-11-11T06:57:39.791Z,100400.69
2023-11-11T07:00:09.554Z,100404.50
2023-11-11T07:02:35.942Z,100406.38
2023-11-11T07:05:05.908Z,100408.22
2023-11-11T07:07:32.660Z,100415.50
2023-11-11T07:09:59.161Z,100419.22
2023-11-11T07:12:25.848Z,100413.91
2023-11-11T07:14:53.048Z,100415.78
2023-11-11T07:17:20.052Z,100418.59
2023-11-11T07:19:46.527Z,100421.31
2023-11-11T07:24:45.403Z,100425.03
2023-11-11T07:27:12.280Z,100417.88
2023-11-11T07:29:38.756Z,100416.03
2023-11-11T07:32:05.329Z,100417.88
2023-11-11T07:34:32.718Z,100428.75
2023-11-11T07:37:00.493Z,100440.22
2023-11-11T07:39:26.885Z,100436.59
2023-11-11T07:41:53.324Z,100447.81
2023-11-11T07:44:19.680Z,100450.84
2023-11-11T07:46:47.076Z,100448.66
2023-11-11T07:49:14.693Z,100452.69
2023-11-11T07:51:41.924Z,100454.88
2023-11-11T07:54:08.636Z,100452.75
2023-11-11T07:56:36.010Z,100459.81
2023-11-11T07:59:03.544Z,100459.41
2023-11-11T08:01:30.380Z,100468.03
2023-11-11T08:03:57.154Z,100473.91
2023-11-11T08:06:26.372Z,100471.94
2023-11-11T08:08:55.872Z,100481.09
2023-11-11T08:11:23.209Z,100492.72
2023-11-11T08:13:49.805Z,100498.75
2023-11-11T08:16:19.350Z,100502.19
2023-11-11T08:18:48.458Z,100503.66
2023-11-11T08:21:20.427Z,100496.22
2023-11-11T08:23:47.088Z,100491.97
2023-11-11T08:26:13.508Z,100491.47
2023-11-11T08:28:39.895Z,100492.66
2023-11-11T08:31:07.247Z,100500.25
2023-11-11T08:33:33.722Z,100496.72
2023-11-11T08:36:01.098Z,100500.38
2023-11-11T08:38:27.482Z,100506.03
2023-11-11T11:12:32.907Z,100566.09
2023-11-11T11:15:06.964Z,100563.22
2023-11-11T11:17:39.725Z,100563.78
2023-11-11T11:20:10.787Z,100562.66
2023-11-11T11:22:41.044Z,100563.22
2023-11-11T11:25:41.673Z,100563.66
2023-11-11T11:28:11.042Z,100573.41
2023-11-11T11:30:59.498Z,100567.09
2023-11-11T11:33:31.997Z,100570.41
2023-11-11T11:36:05.636Z,100566.13
2023-11-11T11:38:37.552Z,100559.34
2023-11-11T11:41:11.058Z,100566.97
2023-11-11T11:43:40.131Z,100563.50
2023-11-11T11:46:06.941Z,100563.78
2023-11-11T11:48:35.768Z,100567.06
2023-11-11T11:51:05.340Z,100566.59
2023-11-11T11:53:32.090Z,100572.50
2023-11-11T11:55:58.532Z,100568.47
2023-11-11T11:58:25.175Z,100565.44
2023-11-11T12:00:51.614Z,100565.13
2023-11-11T12:03:18.206Z,100562.09
2023-11-11T12:05:44.700Z,100563.53
2023-11-11T12:08:12.800Z,100557.47
2023-11-11T12:10:47.220Z,100567.06
2023-11-11T12:13:14.293Z,100558.44
2023-11-11T12:15:50.488Z,100557.00
2023-11-11T12:18:19.082Z,100564.63
2023-11-11T12:20:48.516Z,100564.44
2023-11-11T12:23:15.388Z,100568.03
2023-11-11T12:25:42.480Z,100560.72
2023-11-11T12:28:09.082Z,100581.72
2023-11-11T12:30:35.517Z,100588.03
2023-11-11T12:33:11.775Z,100581.72
2023-11-11T12:35:41.901Z,100592.34
2023-11-11T12:38:29.283Z,100593.22
2023-11-11T12:40:57.635Z,100594.81
2023-11-11T12:43:24.476Z,100598.38
2023-11-11T12:45:53.262Z,100590.91
2023-11-11T12:48:19.902Z,100593.47
2023-11-11T12:50:46.354Z,100594.31
2023-11-11T12:53:14.925Z,100597.22
2023-11-11T12:55:45.307Z,100598.94
2023-11-11T12:58:28.025Z,100597.94
2023-11-11T13:01:07.431Z,100607.88
2023-11-11T13:03:34.384Z,100612.34
2023-11-11T13:06:02.070Z,100613.03
2023-11-11T13:08:29.744Z,100609.97
2023-11-11T13:10:57.953Z,100610.72
2023-11-11T13:13:24.882Z,100611.84
2023-11-11T13:15:55.662Z,100606.44
2023-11-11T13:18:25.994Z,100615.75
2023-11-11T13:20:53.995Z,100606.97
2023-11-11T13:23:22.044Z,100610.81
2023-11-11T13:25:51.926Z,100609.16
2023-11-11T13:28:19.034Z,100611.41
2023-11-11T13:30:49.577Z,100608.91
2023-11-11T13:33:16.862Z,100602.75
2023-11-11T13:35:47.812Z,100595.88
2023-11-11T13:38:17.675Z,100609.88
2023-11-11T13:40:47.780Z,100606.44
2023-11-11T13:43:15.762Z,100614.94
2023-11-11T13:45:43.059Z,100608.75
2023-11-11T13:48:10.947Z,100609.63
2023-11-11T13:50:37.524Z,100611.50
2023-11-11T13:53:05.753Z,100606.16
2023-11-11T13:55:32.886Z,100607.34
2023-11-11T13:58:01.548Z,100617.84
2023-11-11T14:00:29.136Z,100615.66
2023-11-11T14:02:57.407Z,100622.69
2023-11-11T14:05:25.407Z,100629.16
2023-11-11T14:07:55.114Z,100629.47
2023-11-11T14:10:24.691Z,100624.31
2023-11-11T14:12:58.592Z,100630.41
2023-11-11T14:15:36.632Z,100626.25
2023-11-11T14:18:04.438Z,100639.69
2023-11-11T14:20:31.018Z,100646.03
2023-11-11T14:23:00.965Z,100639.50
2023-11-11T14:25:28.291Z,100643.41
2023-11-11T14:27:55.633Z,100649.75
2023-11-11T14:30:24.875Z,100645.28
2023-11-11T14:32:53.390Z,100648.19
2023-11-11T14:35:21.625Z,100646.31
2023-11-11T14:37:48.790Z,100650.94
2023-11-11T14:40:18.917Z,100648.19
2023-11-11T14:42:46.761Z,100647.16
2023-11-11T14:45:14.601Z,100654.53
2023-11-11T14:47:44.813Z,100658.09
2023-11-11T14:50:12.555Z,100652.63
2023-11-11T14:52:39.150Z,100658.84
2023-11-11T14:55:06.614Z,100661.56
2023-11-11T14:57:35.252Z,100665.31
2023-11-11T15:00:05.317Z,100676.25
2023-11-11T15:02:36.891Z,100658.97
2023-11-11T15:05:10.141Z,100671.94
2023-11-11T15:07:37.334Z,100671.94
2023-11-11T15:10:07.889Z,100670.22
2023-11-11T15:12:34.613Z,100674.81
2023-11-11T15:15:02.786Z,100681.34
2023-11-11T15:17:29.407Z,100685.94
2023-11-11T15:19:57.043Z,100687.81
2023-11-11T15:22:23.526Z,100691.53
2023-11-11T15:24:52.192Z,100684.34
2023-11-11T15:27:18.671Z,100688.97
2023-11-11T15:29:47.003Z,100697.00
2023-11-11T15:32:13.629Z,100687.06
2023-11-11T15:34:40.538Z,100692.53
2023-11-11T15:37:07.013Z,100704.53
2023-11-11T15:39:34.529Z,100706.22
2023-11-11T15:42:01.987Z,100705.53
2023-11-11T15:44:32.294Z,100699.34
2023-11-11T15:47:00.182Z,100693.03
2023-11-11T15:49:27.619Z,100699.34
2023-11-11T15:51:55.254Z,100713.03
2023-11-11T15:54:21.974Z,100714.03
2023-11-11T15:56:50.508Z,100715.78
2023-11-11T15:59:17.801Z,100714.91
2023-11-11T16:01:44.301Z,100708.56
2023-11-11T16:04:12.105Z,100716.03
2023-11-11T16:06:42.658Z,100711.59
2023-11-11T16:09:10.794Z,100713.47
2023-11-11T16:11:37.994Z,100708.88
2023-11-11T16:14:04.593Z,100709.56
2023-11-11T16:16:31.068Z,100708.56
2023-11-11T16:18:57.540Z,100699.63
2023-11-11T16:21:25.341Z,100716.03
2023-11-11T16:23:53.223Z,100714.34
2023-11-11T16:26:21.698Z,100720.81
2023-11-11T16:28:50.840Z,100733.63
2023-11-11T16:31:25.089Z,100724.53
2023-11-11T16:33:59.645Z,100739.09
2023-11-11T16:36:27.511Z,100734.47
2023-11-11T16:38:55.730Z,100734.19
2023-11-11T16:41:23.129Z,100732.19
2023-11-11T16:43:49.591Z,100741.97
2023-11-11T16:46:16.385Z,100732.88
2023-11-11T16:48:43.425Z,100741.09
2023-11-11T16:51:11.600Z,100738.34
2023-11-11T16:53:38.082Z,100737.34
2023-11-11T16:56:08.437Z,100738.34
2023-11-11T16:58:38.873Z,100736.31
2023-11-11T17:01:07.628Z,100738.22
2023-11-11T17:03:37.041Z,100745.38
2023-11-11T17:06:05.087Z,100747.25
2023-11-11T17:08:32.631Z,100737.34
2023-11-11T17:11:01.222Z,100734.75
2023-11-11T17:13:27.757Z,100733.00
2023-11-11T17:15:55.197Z,100737.66
2023-11-11T17:18:21.621Z,100743.38
2023-11-11T17:20:48.055Z,100748.88
2023-11-11T17:23:14.799Z,100745.44
2023-11-11T17:25:42.699Z,100748.28
2023-11-11T17:28:11.452Z,100742.13
2023-11-11T17:30:40.403Z,100750.47
2023-11-11T17:33:14.693Z,100756.97
2023-11-11T17:35:48.311Z,100752.63
2023-11-11T17:38:14.749Z,100752.78
2023-11-11T17:40:41.169Z,100758.41
2023-11-11T17:43:09.499Z,100764.16
2023-11-11T17:45:36.512Z,100759.88
2023-11-11T17:48:03.783Z,100761.88
2023-11-11T17:50:31.591Z,100757.56
2023-11-11T17:53:09.859Z,100757.72
2023-11-11T17:55:43.087Z,100759.88
2023-11-11T17:58:09.449Z,100760.00
2023-11-11T18:00:35.841Z,100758.41
2023-11-11T18:03:02.328Z,100760.41
2023-11-11T18:05:34.353Z,100758.84
2023-11-11T18:08:02.625Z,100758.97
2023-11-11T18:10:29.597Z,100761.88
2023-11-11T18:12:56.103Z,100755.66
2023-11-11T18:15:22.543Z,100764.91
2023-11-11T18:17:50.367Z,100758.69
2023-11-11T18:20:16.995Z,100757.00
2023-11-11T18:22:43.471Z,100753.53
2023-11-11T18:25:11.245Z,100746.34
2023-11-11T18:27:38.830Z,100749.06
2023-11-11T18:30:07.089Z,100749.22
2023-11-11T18:32:33.606Z,100755.69
2023-11-11T18:35:01.521Z,100751.22
2023-11-11T18:37:28.071Z,100745.91
2023-11-11T18:39:54.703Z,100749.66
2023-11-11T18:42:21.281Z,100753.38
2023-11-11T18:44:47.714Z,100752.69
2023-11-11T18:47:14.212Z,100753.69
2023-11-11T18:49:40.710Z,100748.38
2023-11-11T18:52:07.257Z,100745.78
2023-11-11T18:54:33.813Z,100740.47
2023-11-11T18:57:00.335Z,100740.59
2023-11-11T18:59:26.841Z,100743.47
2023-11-11T19:01:53.370Z,100741.75
2023-11-11T19:04:19.961Z,100744.63
2023-11-11T19:06:46.357Z,100748.34
2023-11-11T19:09:14.033Z,100752.13
2023-11-11T19:11:45.229Z,100755.84
2023-11-11T19:14:12.740Z,100749.63
2023-11-11T19:16:41.651Z,100753.41
2023-11-11T19:19:10.956Z,100748.06
2023-11-11T19:21:38.314Z,100741.03
2023-11-11T19:24:10.044Z,100743.75
2023-11-11T19:26:37.141Z,100743.88
2023-11-11T19:29:03.837Z,100736.84
2023-11-11T19:31:31.080Z,100735.13
2023-11-11T19:33:57.618Z,100736.16
2023-11-11T19:36:24.576Z,100737.16
2023-11-11T19:38:51.106Z,100737.16
2023-11-11T19:41:17.736Z,100744.59
2023-11-11T19:43:47.222Z,100735.69
2023-11-11T19:46:18.061Z,100737.72
2023-11-11T19:48:45.923Z,100737.72
2023-11-11T19:51:24.667Z,100736.00
2023-11-11T19:53:53.518Z,100732.41
2023-11-11T19:56:21.107Z,100739.72
2023-11-11T19:58:48.478Z,100736.28
2023-11-11T20:01:15.079Z,100744.47
2023-11-11T20:03:42.307Z,100749.19
2023-11-11T20:06:10.036Z,100745.75
2023-11-11T20:08:36.524Z,100747.19
2023-11-11T20:11:03.543Z,100750.06
2023-11-11T20:13:30.025Z,100754.81
2023-11-11T20:15:56.877Z,100747.75
2023-11-11T20:18:23.368Z,100755.09
2023-11-11T20:20:49.882Z,100749.78
2023-11-11T20:23:16.394Z,100755.34
2023-11-11T20:25:42.834Z,100753.66
2023-11-11T20:28:09.261Z,100757.38
2023-11-11T20:30:39.014Z,100756.66
2023-11-11T20:33:10.776Z,100753.94
2023-11-11T20:35:37.844Z,100747.75
2023-11-11T20:38:04.966Z,100746.84
2023-11-11T20:40:31.501Z,100746.13
2023-11-11T20:42:57.940Z,100738.94
2023-11-11T20:45:24.817Z,100730.03
2023-11-11T20:47:51.722Z,100732.91
2023-11-11T20:50:18.483Z,100725.56
2023-11-11T20:52:46.032Z,100732.03
2023-11-11T20:55:15.139Z,100715.94
2023-11-11T20:57:44.974Z,100712.34
2023-11-11T21:00:13.347Z,100715.94
2023-11-11T21:02:41.441Z,100713.50
2023-11-11T21:05:12.379Z,100714.34
2023-11-11T21:07:40.277Z,100704.59
2023-11-11T21:10:09.567Z,100718.25
2023-11-11T21:12:36.758Z,100716.63
2023-11-11T21:15:03.874Z,100717.50
2023-11-11T21:17:31.295Z,100714.94
2023-11-11T21:19:58.535Z,100714.06
2023-11-11T21:22:25.218Z,100713.03
2023-11-11T21:24:51.745Z,100716.06
2023-11-11T21:27:18.169Z,100717.06
2023-11-11T21:29:45.969Z,100718.06
2023-11-11T21:32:13.705Z,100723.53
2023-11-11T21:34:41.339Z,100723.53
2023-11-11T21:37:09.608Z,100727.25
2023-11-11T21:39:36.407Z,100719.22
2023-11-11T21:42:03.298Z,100718.34
2023-11-11T21:44:29.816Z,100722.09
2023-11-11T21:46:56.275Z,100723.06
2023-11-11T21:49:24.305Z,100718.63
2023-11-11T21:51:50.809Z,100711.44
2023-11-11T21:54:17.315Z,100715.16
2023-11-11T21:56:43.797Z,100709.00
2023-11-11T21:59:11.869Z,100710.88
2023-11-11T22:01:43.326Z,100706.41
2023-11-11T22:04:10.595Z,100703.84
2023-11-11T22:06:37.911Z,100699.38
2023-11-11T22:09:06.689Z,100691.31
2023-11-11T22:11:34.141Z,100692.34
2023-11-11T22:14:00.848Z,100701.34
2023-11-11T22:16:27.404Z,100695.19
2023-11-11T22:18:54.626Z,100701.63
2023-11-11T22:21:21.249Z,100697.22
2023-11-11T22:23:47.689Z,100698.19
2023-11-11T22:26:18.513Z,100689.28
2023-11-11T22:28:46.470Z,100684.69
2023-11-11T22:31:13.324Z,100688.44
2023-11-11T22:33:39.908Z,100696.75
2023-11-11T22:36:08.809Z,100692.28
2023-11-11T22:38:35.217Z,100687.84
2023-11-11T22:41:01.725Z,100697.03
2023-11-11T22:43:28.139Z,100694.44
2023-11-11T22:45:54.627Z,100691.84
2023-11-11T22:48:21.077Z,100692.84
2023-11-11T22:50:47.584Z,100699.28
2023-11-11T22:53:14.047Z,100707.63
2023-11-11T22:55:40.945Z,100698.59
2023-11-11T22:58:07.421Z,100698.72
2023-11-11T23:00:33.820Z,100704.31
2023-11-11T23:03:09.181Z,100701.72
2023-11-11T23:05:36.174Z,100698.13
2023-11-11T23:08:05.979Z,100712.78
2023-11-11T23:10:33.911Z,100712.78
2023-11-11T23:13:01.375Z,100703.84
2023-11-11T23:15:30.135Z,100703.16
2023-11-11T23:17:57.183Z,100699.56
2023-11-11T23:20:23.714Z,100692.34
2023-11-11T23:22:50.310Z,100687.06
2023-11-11T23:25:16.774Z,100695.25
2023-11-11T23:27:44.227Z,100683.59
2023-11-11T23:30:11.445Z,100691.78
2023-11-11T23:32:38.891Z,100684.59
2023-11-11T23:35:06.082Z,100673.84
2023-11-11T23:37:32.728Z,100670.25
2023-11-11T23:39:59.200Z,100673.97
2023-11-11T23:42:25.596Z,100666.81
2023-11-11T23:44:52.048Z,100675.81
2023-11-11T23:47:19.540Z,100670.50
2023-11-11T23:49:46.080Z,100665.19
2023-11-11T23:52:12.598Z,100664.31
2023-11-11T23:54:39.037Z,100667.03
2023-11-11T23:57:06.169Z,100664.47
2023-11-11T23:59:32.618Z,100668.19
